sensor_id;sensor_type;location;lat;lon;timestamp;P1;durP1;ratioP1;P2;durP2;ratioP2
4047;SDS011;2038;51.728;6.674;2023-01-05T00:01:05;27.13;;;6.63;;
4047;SDS011;2038;51.728;6.674;2023-01-05T00:03:35;25.73;;;6.20;;
4047;SDS011;2038;51.728;6.674;2023-01-05T00:06:05;30.43;;;7.60;;
4047;SDS011;2038;51.728;6.674;2023-01-05T00:08:37;28.53;;;6.90;;
4047;SDS011;2038;51.728;6.674;2023-01-05T00:11:05;29.80;;;6.40;;
4047;SDS011;2038;51.728;6.674;2023-01-05T00:13:56;36.70;;;6.33;;
4047;SDS011;2038;51.728;6.674;2023-01-05T00:16:43;35.53;;;6.63;;
4047;SDS011;2038;51.728;6.674;2023-01-05T00:19:28;52.37;;;8.47;;
4047;SDS011;2038;51.728;6.674;2023-01-05T00:22:14;27.17;;;7.00;;
4047;SDS011;2038;51.728;6.674;2023-01-05T00:25:16;28.47;;;6.50;;
4047;SDS011;2038;51.728;6.674;2023-01-05T00:27:45;45.17;;;7.90;;
4047;SDS011;2038;51.728;6.674;2023-01-05T00:30:15;33.33;;;6.87;;
4047;SDS011;2038;51.728;6.674;2023-01-05T00:32:45;29.63;;;7.20;;
4047;SDS011;2038;51.728;6.674;2023-01-05T00:35:12;33.33;;;6.20;;
4047;SDS011;2038;51.728;6.674;2023-01-05T00:37:40;28.23;;;6.90;;
4047;SDS011;2038;51.728;6.674;2023-01-05T00:40:12;30.07;;;7.07;;
4047;SDS011;2038;51.728;6.674;2023-01-05T00:42:41;37.37;;;8.57;;
4047;SDS011;2038;51.728;6.674;2023-01-05T00:45:09;29.30;;;6.50;;
4047;SDS011;2038;51.728;6.674;2023-01-05T00:47:38;31.40;;;7.73;;
4047;SDS011;2038;51.728;6.674;2023-01-05T00:50:05;35.90;;;6.80;;
4047;SDS011;2038;51.728;6.674;2023-01-05T00:52:33;35.93;;;7.47;;
4047;SDS011;2038;51.728;6.674;2023-01-05T00:55:00;26.13;;;6.53;;
4047;SDS011;2038;51.728;6.674;2023-01-05T00:57:26;31.03;;;6.23;;
4047;SDS011;2038;51.728;6.674;2023-01-05T00:59:52;27.73;;;5.97;;
4047;SDS011;2038;51.728;6.674;2023-01-05T01:02:19;37.20;;;6.80;;
4047;SDS011;2038;51.728;6.674;2023-01-05T01:04:45;30.00;;;6.57;;
4047;SDS011;2038;51.728;6.674;2023-01-05T01:07:11;29.50;;;6.70;;
4047;SDS011;2038;51.728;6.674;2023-01-05T01:09:37;43.83;;;7.27;;
4047;SDS011;2038;51.728;6.674;2023-01-05T01:12:05;25.40;;;8.00;;
4047;SDS011;2038;51.728;6.674;2023-01-05T01:14:31;45.37;;;7.93;;
4047;SDS011;2038;51.728;6.674;2023-01-05T01:16:58;27.77;;;6.27;;
4047;SDS011;2038;51.728;6.674;2023-01-05T01:19:24;28.23;;;7.70;;
4047;SDS011;2038;51.728;6.674;2023-01-05T01:21:51;30.90;;;8.40;;
4047;SDS011;2038;51.728;6.674;2023-01-05T01:24:20;27.83;;;6.37;;
4047;SDS011;2038;51.728;6.674;2023-01-05T01:26:51;32.83;;;8.60;;
4047;SDS011;2038;51.728;6.674;2023-01-05T01:29:19;30.77;;;6.73;;
4047;SDS011;2038;51.728;6.674;2023-01-05T01:31:48;35.90;;;6.43;;
4047;SDS011;2038;51.728;6.674;2023-01-05T01:34:17;28.17;;;7.73;;
4047;SDS011;2038;51.728;6.674;2023-01-05T01:36:44;36.67;;;9.70;;
4047;SDS011;2038;51.728;6.674;2023-01-05T01:39:10;27.73;;;6.33;;
4047;SDS011;2038;51.728;6.674;2023-01-05T01:41:37;23.23;;;6.77;;
4047;SDS011;2038;51.728;6.674;2023-01-05T01:48:02;21.37;;;6.37;;
4047;SDS011;2038;51.728;6.674;2023-01-05T01:52:59;32.67;;;7.57;;
4047;SDS011;2038;51.728;6.674;2023-01-05T01:55:40;25.60;;;6.47;;
4047;SDS011;2038;51.728;6.674;2023-01-05T01:58:09;27.70;;;7.30;;
4047;SDS011;2038;51.728;6.674;2023-01-05T02:00:40;28.10;;;5.60;;
4047;SDS011;2038;51.728;6.674;2023-01-05T02:03:08;21.57;;;5.97;;
4047;SDS011;2038;51.728;6.674;2023-01-05T02:05:35;26.67;;;7.13;;
4047;SDS011;2038;51.728;6.674;2023-01-05T02:08:02;24.57;;;5.60;;
4047;SDS011;2038;51.728;6.674;2023-01-05T02:10:39;37.77;;;7.80;;
4047;SDS011;2038;51.728;6.674;2023-01-05T02:13:47;26.03;;;6.23;;
4047;SDS011;2038;51.728;6.674;2023-01-05T02:37:46;27.63;;;7.03;;
4047;SDS011;2038;51.728;6.674;2023-01-05T02:40:35;30.77;;;7.37;;
4047;SDS011;2038;51.728;6.674;2023-01-05T02:43:08;37.80;;;5.93;;
4047;SDS011;2038;51.728;6.674;2023-01-05T02:45:38;28.10;;;8.63;;
4047;SDS011;2038;51.728;6.674;2023-01-05T02:48:04;33.17;;;6.83;;
4047;SDS011;2038;51.728;6.674;2023-01-05T02:50:53;31.77;;;6.50;;
4047;SDS011;2038;51.728;6.674;2023-01-05T02:53:36;35.07;;;8.03;;
4047;SDS011;2038;51.728;6.674;2023-01-05T02:56:36;27.53;;;7.63;;
4047;SDS011;2038;51.728;6.674;2023-01-05T02:59:17;39.03;;;7.50;;
4047;SDS011;2038;51.728;6.674;2023-01-05T03:02:06;35.33;;;7.17;;
4047;SDS011;2038;51.728;6.674;2023-01-05T03:04:43;34.23;;;7.30;;
4047;SDS011;2038;51.728;6.674;2023-01-05T03:07:24;33.00;;;7.17;;
4047;SDS011;2038;51.728;6.674;2023-01-05T03:09:53;44.70;;;7.73;;
4047;SDS011;2038;51.728;6.674;2023-01-05T03:12:21;32.17;;;7.93;;
4047;SDS011;2038;51.728;6.674;2023-01-05T03:15:19;28.80;;;6.70;;
4047;SDS011;2038;51.728;6.674;2023-01-05T03:17:56;31.57;;;8.03;;
4047;SDS011;2038;51.728;6.674;2023-01-05T03:20:30;26.67;;;7.40;;
4047;SDS011;2038;51.728;6.674;2023-01-05T03:22:59;26.03;;;6.57;;
4047;SDS011;2038;51.728;6.674;2023-01-05T03:25:49;34.43;;;6.37;;
4047;SDS011;2038;51.728;6.674;2023-01-05T03:28:45;27.57;;;7.23;;
4047;SDS011;2038;51.728;6.674;2023-01-05T03:34:45;27.00;;;7.03;;
4047;SDS011;2038;51.728;6.674;2023-01-05T03:37:50;33.03;;;7.23;;
4047;SDS011;2038;51.728;6.674;2023-01-05T03:40:37;25.13;;;6.37;;
4047;SDS011;2038;51.728;6.674;2023-01-05T03:43:07;47.43;;;10.63;;
4047;SDS011;2038;51.728;6.674;2023-01-05T03:45:38;29.00;;;6.97;;
4047;SDS011;2038;51.728;6.674;2023-01-05T03:48:08;43.07;;;7.80;;
4047;SDS011;2038;51.728;6.674;2023-01-05T03:50:35;26.10;;;7.30;;
4047;SDS011;2038;51.728;6.674;2023-01-05T03:53:02;46.53;;;8.47;;
4047;SDS011;2038;51.728;6.674;2023-01-05T03:55:29;41.83;;;6.33;;
4047;SDS011;2038;51.728;6.674;2023-01-05T03:57:55;27.53;;;7.50;;
4047;SDS011;2038;51.728;6.674;2023-01-05T04:00:21;37.70;;;8.80;;
4047;SDS011;2038;51.728;6.674;2023-01-05T04:02:49;41.20;;;8.30;;
4047;SDS011;2038;51.728;6.674;2023-01-05T04:05:15;35.40;;;9.17;;
4047;SDS011;2038;51.728;6.674;2023-01-05T04:07:42;25.90;;;8.17;;
4047;SDS011;2038;51.728;6.674;2023-01-05T04:10:08;25.37;;;7.50;;
4047;SDS011;2038;51.728;6.674;2023-01-05T04:12:34;52.33;;;8.07;;
4047;SDS011;2038;51.728;6.674;2023-01-05T04:15:02;48.60;;;8.57;;
4047;SDS011;2038;51.728;6.674;2023-01-05T04:17:29;33.27;;;7.03;;
4047;SDS011;2038;51.728;6.674;2023-01-05T04:19:56;38.23;;;7.63;;
4047;SDS011;2038;51.728;6.674;2023-01-05T04:22:22;35.10;;;7.07;;
4047;SDS011;2038;51.728;6.674;2023-01-05T04:24:48;46.83;;;7.80;;
4047;SDS011;2038;51.728;6.674;2023-01-05T04:27:14;47.57;;;7.97;;
4047;SDS011;2038;51.728;6.674;2023-01-05T04:29:41;33.10;;;7.60;;
4047;SDS011;2038;51.728;6.674;2023-01-05T04:32:07;31.20;;;8.47;;
4047;SDS011;2038;51.728;6.674;2023-01-05T04:34:33;33.63;;;8.20;;
4047;SDS011;2038;51.728;6.674;2023-01-05T04:37:00;34.03;;;7.20;;
4047;SDS011;2038;51.728;6.674;2023-01-05T04:39:26;51.83;;;9.47;;
4047;SDS011;2038;51.728;6.674;2023-01-05T04:41:52;34.80;;;7.10;;
4047;SDS011;2038;51.728;6.674;2023-01-05T04:44:19;32.03;;;6.90;;
4047;SDS011;2038;51.728;6.674;2023-01-05T04:46:45;39.23;;;6.93;;
4047;SDS011;2038;51.728;6.674;2023-01-05T04:49:11;30.50;;;7.83;;
4047;SDS011;2038;51.728;6.674;2023-01-05T04:51:37;29.17;;;8.00;;
4047;SDS011;2038;51.728;6.674;2023-01-05T04:54:04;40.73;;;7.33;;
4047;SDS011;2038;51.728;6.674;2023-01-05T04:56:30;25.97;;;7.17;;
4047;SDS011;2038;51.728;6.674;2023-01-05T04:58:56;50.87;;;8.50;;
4047;SDS011;2038;51.728;6.674;2023-01-05T05:01:22;35.50;;;8.27;;
4047;SDS011;2038;51.728;6.674;2023-01-05T05:03:49;22.63;;;6.33;;
4047;SDS011;2038;51.728;6.674;2023-01-05T05:06:15;39.20;;;7.63;;
4047;SDS011;2038;51.728;6.674;2023-01-05T05:08:41;20.20;;;6.50;;
4047;SDS011;2038;51.728;6.674;2023-01-05T05:11:07;29.77;;;6.90;;
4047;SDS011;2038;51.728;6.674;2023-01-05T05:13:34;28.47;;;6.90;;
4047;SDS011;2038;51.728;6.674;2023-01-05T05:16:00;28.30;;;6.67;;
4047;SDS011;2038;51.728;6.674;2023-01-05T05:18:26;33.73;;;6.50;;
4047;SDS011;2038;51.728;6.674;2023-01-05T05:20:53;31.73;;;7.77;;
4047;SDS011;2038;51.728;6.674;2023-01-05T05:23:19;37.90;;;7.30;;
4047;SDS011;2038;51.728;6.674;2023-01-05T05:25:49;26.50;;;7.90;;
4047;SDS011;2038;51.728;6.674;2023-01-05T05:28:17;25.30;;;6.10;;
4047;SDS011;2038;51.728;6.674;2023-01-05T05:30:44;34.83;;;7.90;;
4047;SDS011;2038;51.728;6.674;2023-01-05T05:33:12;29.20;;;7.13;;
4047;SDS011;2038;51.728;6.674;2023-01-05T05:35:38;30.33;;;6.37;;
4047;SDS011;2038;51.728;6.674;2023-01-05T05:38:05;41.60;;;8.50;;
4047;SDS011;2038;51.728;6.674;2023-01-05T05:40:31;31.57;;;7.67;;
4047;SDS011;2038;51.728;6.674;2023-01-05T05:42:58;29.80;;;6.07;;
4047;SDS011;2038;51.728;6.674;2023-01-05T05:45:24;28.77;;;7.23;;
4047;SDS011;2038;51.728;6.674;2023-01-05T05:47:50;28.70;;;6.20;;
4047;SDS011;2038;51.728;6.674;2023-01-05T05:50:16;30.63;;;8.33;;
4047;SDS011;2038;51.728;6.674;2023-01-05T05:52:42;35.30;;;6.80;;
4047;SDS011;2038;51.728;6.674;2023-01-05T05:55:09;29.13;;;7.13;;
4047;SDS011;2038;51.728;6.674;2023-01-05T05:57:35;43.47;;;7.80;;
4047;SDS011;2038;51.728;6.674;2023-01-05T06:00:01;40.53;;;7.80;;
4047;SDS011;2038;51.728;6.674;2023-01-05T06:02:28;34.67;;;6.43;;
4047;SDS011;2038;51.728;6.674;2023-01-05T06:04:55;30.90;;;7.33;;
4047;SDS011;2038;51.728;6.674;2023-01-05T06:07:21;34.97;;;7.20;;
4047;SDS011;2038;51.728;6.674;2023-01-05T06:09:47;29.53;;;7.30;;
4047;SDS011;2038;51.728;6.674;2023-01-05T06:12:13;36.83;;;7.87;;
4047;SDS011;2038;51.728;6.674;2023-01-05T06:14:39;30.93;;;7.87;;
4047;SDS011;2038;51.728;6.674;2023-01-05T06:17:06;36.37;;;7.53;;
4047;SDS011;2038;51.728;6.674;2023-01-05T06:19:32;37.63;;;8.30;;
4047;SDS011;2038;51.728;6.674;2023-01-05T06:22:04;26.90;;;6.50;;
4047;SDS011;2038;51.728;6.674;2023-01-05T06:24:30;30.23;;;7.93;;
4047;SDS011;2038;51.728;6.674;2023-01-05T06:26:56;24.37;;;7.60;;
4047;SDS011;2038;51.728;6.674;2023-01-05T06:29:22;31.77;;;7.83;;
4047;SDS011;2038;51.728;6.674;2023-01-05T06:31:49;37.10;;;7.57;;
4047;SDS011;2038;51.728;6.674;2023-01-05T06:34:15;31.27;;;6.60;;
4047;SDS011;2038;51.728;6.674;2023-01-05T06:36:41;34.27;;;6.83;;
4047;SDS011;2038;51.728;6.674;2023-01-05T06:39:07;21.87;;;7.80;;
4047;SDS011;2038;51.728;6.674;2023-01-05T06:41:33;29.87;;;8.90;;
4047;SDS011;2038;51.728;6.674;2023-01-05T06:44:00;30.10;;;7.37;;
4047;SDS011;2038;51.728;6.674;2023-01-05T06:46:26;34.90;;;8.53;;
4047;SDS011;2038;51.728;6.674;2023-01-05T06:48:52;27.97;;;7.40;;
4047;SDS011;2038;51.728;6.674;2023-01-05T06:51:18;39.03;;;9.63;;
4047;SDS011;2038;51.728;6.674;2023-01-05T06:53:45;32.93;;;8.00;;
4047;SDS011;2038;51.728;6.674;2023-01-05T06:56:11;33.60;;;6.40;;
4047;SDS011;2038;51.728;6.674;2023-01-05T06:58:37;30.87;;;7.93;;
4047;SDS011;2038;51.728;6.674;2023-01-05T07:01:03;33.90;;;7.83;;
4047;SDS011;2038;51.728;6.674;2023-01-05T07:03:30;39.30;;;8.17;;
4047;SDS011;2038;51.728;6.674;2023-01-05T07:05:56;32.30;;;8.63;;
4047;SDS011;2038;51.728;6.674;2023-01-05T07:08:22;35.77;;;7.90;;
4047;SDS011;2038;51.728;6.674;2023-01-05T07:10:48;37.10;;;8.00;;
4047;SDS011;2038;51.728;6.674;2023-01-05T07:13:14;49.67;;;9.60;;
4047;SDS011;2038;51.728;6.674;2023-01-05T07:15:41;39.43;;;8.00;;
4047;SDS011;2038;51.728;6.674;2023-01-05T07:18:07;28.13;;;6.60;;
4047;SDS011;2038;51.728;6.674;2023-01-05T07:20:33;34.93;;;6.73;;
4047;SDS011;2038;51.728;6.674;2023-01-05T07:22:59;30.33;;;7.30;;
4047;SDS011;2038;51.728;6.674;2023-01-05T07:25:25;30.10;;;6.60;;
4047;SDS011;2038;51.728;6.674;2023-01-05T07:27:55;40.80;;;7.83;;
4047;SDS011;2038;51.728;6.674;2023-01-05T07:30:22;29.13;;;7.03;;
4047;SDS011;2038;51.728;6.674;2023-01-05T07:32:48;26.50;;;6.87;;
4047;SDS011;2038;51.728;6.674;2023-01-05T07:35:14;35.80;;;7.87;;
4047;SDS011;2038;51.728;6.674;2023-01-05T07:37:41;30.67;;;8.10;;
4047;SDS011;2038;51.728;6.674;2023-01-05T07:40:08;37.00;;;9.03;;
4047;SDS011;2038;51.728;6.674;2023-01-05T07:42:35;46.07;;;7.87;;
4047;SDS011;2038;51.728;6.674;2023-01-05T07:45:01;50.13;;;8.20;;
4047;SDS011;2038;51.728;6.674;2023-01-05T07:47:28;42.60;;;8.80;;
4047;SDS011;2038;51.728;6.674;2023-01-05T07:49:55;27.60;;;7.13;;
4047;SDS011;2038;51.728;6.674;2023-01-05T07:52:21;38.90;;;8.00;;
4047;SDS011;2038;51.728;6.674;2023-01-05T07:54:47;43.00;;;8.10;;
4047;SDS011;2038;51.728;6.674;2023-01-05T07:57:14;50.30;;;8.63;;
4047;SDS011;2038;51.728;6.674;2023-01-05T07:59:40;39.07;;;7.67;;
4047;SDS011;2038;51.728;6.674;2023-01-05T08:02:07;35.20;;;11.20;;
4047;SDS011;2038;51.728;6.674;2023-01-05T08:04:34;35.37;;;7.03;;
4047;SDS011;2038;51.728;6.674;2023-01-05T08:07:00;41.33;;;8.37;;
4047;SDS011;2038;51.728;6.674;2023-01-05T08:09:33;30.77;;;8.67;;
4047;SDS011;2038;51.728;6.674;2023-01-05T08:12:18;45.73;;;9.20;;
4047;SDS011;2038;51.728;6.674;2023-01-05T08:14:45;33.97;;;8.23;;
4047;SDS011;2038;51.728;6.674;2023-01-05T08:17:11;52.40;;;8.20;;
4047;SDS011;2038;51.728;6.674;2023-01-05T08:19:37;35.93;;;8.20;;
4047;SDS011;2038;51.728;6.674;2023-01-05T08:22:04;37.30;;;9.20;;
4047;SDS011;2038;51.728;6.674;2023-01-05T08:24:30;47.73;;;9.40;;
4047;SDS011;2038;51.728;6.674;2023-01-05T08:26:56;34.20;;;8.10;;
4047;SDS011;2038;51.728;6.674;2023-01-05T08:29:22;29.47;;;7.37;;
4047;SDS011;2038;51.728;6.674;2023-01-05T08:31:49;42.03;;;7.70;;
4047;SDS011;2038;51.728;6.674;2023-01-05T08:34:15;26.53;;;7.80;;
4047;SDS011;2038;51.728;6.674;2023-01-05T08:36:41;22.23;;;7.33;;
4047;SDS011;2038;51.728;6.674;2023-01-05T08:39:08;34.20;;;6.97;;
4047;SDS011;2038;51.728;6.674;2023-01-05T08:41:36;26.53;;;6.83;;
4047;SDS011;2038;51.728;6.674;2023-01-05T08:44:12;34.83;;;8.47;;
4047;SDS011;2038;51.728;6.674;2023-01-05T08:46:39;40.97;;;7.63;;
4047;SDS011;2038;51.728;6.674;2023-01-05T08:49:07;35.70;;;7.77;;
4047;SDS011;2038;51.728;6.674;2023-01-05T08:51:33;29.37;;;8.20;;
4047;SDS011;2038;51.728;6.674;2023-01-05T08:54:00;44.53;;;7.33;;
4047;SDS011;2038;51.728;6.674;2023-01-05T08:56:25;38.83;;;8.23;;
4047;SDS011;2038;51.728;6.674;2023-01-05T08:58:52;39.93;;;7.90;;
4047;SDS011;2038;51.728;6.674;2023-01-05T09:01:20;25.80;;;6.77;;
4047;SDS011;2038;51.728;6.674;2023-01-05T09:03:46;39.97;;;7.20;;
4047;SDS011;2038;51.728;6.674;2023-01-05T09:06:14;36.40;;;8.63;;
4047;SDS011;2038;51.728;6.674;2023-01-05T09:08:42;31.80;;;8.00;;
4047;SDS011;2038;51.728;6.674;2023-01-05T09:11:14;32.10;;;8.77;;
4047;SDS011;2038;51.728;6.674;2023-01-05T09:13:59;33.10;;;7.57;;
4047;SDS011;2038;51.728;6.674;2023-01-05T09:16:27;37.93;;;8.63;;
4047;SDS011;2038;51.728;6.674;2023-01-05T09:18:57;39.23;;;8.50;;
4047;SDS011;2038;51.728;6.674;2023-01-05T09:21:28;27.83;;;7.87;;
4047;SDS011;2038;51.728;6.674;2023-01-05T09:23:57;28.03;;;8.47;;
4047;SDS011;2038;51.728;6.674;2023-01-05T09:26:25;37.53;;;8.10;;
4047;SDS011;2038;51.728;6.674;2023-01-05T09:28:55;39.43;;;8.77;;
4047;SDS011;2038;51.728;6.674;2023-01-05T09:31:23;35.57;;;7.57;;
4047;SDS011;2038;51.728;6.674;2023-01-05T09:33:50;39.90;;;8.63;;
4047;SDS011;2038;51.728;6.674;2023-01-05T09:36:16;25.70;;;7.80;;
4047;SDS011;2038;51.728;6.674;2023-01-05T09:38:49;30.37;;;7.17;;
4047;SDS011;2038;51.728;6.674;2023-01-05T09:41:22;34.23;;;9.27;;
4047;SDS011;2038;51.728;6.674;2023-01-05T09:44:19;42.37;;;8.47;;
4047;SDS011;2038;51.728;6.674;2023-01-05T09:50:20;59.00;;;7.93;;
4047;SDS011;2038;51.728;6.674;2023-01-05T09:52:54;39.67;;;8.50;;
4047;SDS011;2038;51.728;6.674;2023-01-05T09:55:25;40.53;;;9.77;;
4047;SDS011;2038;51.728;6.674;2023-01-05T09:57:57;34.60;;;8.10;;
4047;SDS011;2038;51.728;6.674;2023-01-05T10:00:30;35.67;;;8.60;;
4047;SDS011;2038;51.728;6.674;2023-01-05T10:03:04;42.80;;;8.17;;
4047;SDS011;2038;51.728;6.674;2023-01-05T10:05:45;37.33;;;9.50;;
4047;SDS011;2038;51.728;6.674;2023-01-05T10:08:17;38.90;;;7.60;;
4047;SDS011;2038;51.728;6.674;2023-01-05T10:11:23;33.23;;;9.53;;
4047;SDS011;2038;51.728;6.674;2023-01-05T10:14:39;38.20;;;8.03;;
4047;SDS011;2038;51.728;6.674;2023-01-05T10:17:18;20.70;;;6.70;;
4047;SDS011;2038;51.728;6.674;2023-01-05T10:19:46;23.80;;;7.70;;
4047;SDS011;2038;51.728;6.674;2023-01-05T10:22:26;28.60;;;7.73;;
4047;SDS011;2038;51.728;6.674;2023-01-05T10:25:20;37.23;;;7.57;;
4047;SDS011;2038;51.728;6.674;2023-01-05T10:28:21;37.50;;;8.43;;
4047;SDS011;2038;51.728;6.674;2023-01-05T10:30:59;31.60;;;8.43;;
4047;SDS011;2038;51.728;6.674;2023-01-05T10:36:42;38.77;;;7.70;;
4047;SDS011;2038;51.728;6.674;2023-01-05T10:42:27;33.67;;;8.67;;
4047;SDS011;2038;51.728;6.674;2023-01-05T10:45:15;39.43;;;9.03;;
4047;SDS011;2038;51.728;6.674;2023-01-05T10:47:44;18.70;;;6.87;;
4047;SDS011;2038;51.728;6.674;2023-01-05T10:50:27;42.30;;;9.07;;
4047;SDS011;2038;51.728;6.674;2023-01-05T10:53:09;36.60;;;8.87;;
4047;SDS011;2038;51.728;6.674;2023-01-05T10:55:44;40.37;;;8.67;;
4047;SDS011;2038;51.728;6.674;2023-01-05T10:59:04;41.90;;;8.60;;
4047;SDS011;2038;51.728;6.674;2023-01-05T11:01:33;43.33;;;8.87;;
4047;SDS011;2038;51.728;6.674;2023-01-05T11:04:07;40.60;;;9.63;;
4047;SDS011;2038;51.728;6.674;2023-01-05T11:06:41;28.33;;;8.17;;
4047;SDS011;2038;51.728;6.674;2023-01-05T11:11:57;32.83;;;7.80;;
4047;SDS011;2038;51.728;6.674;2023-01-05T11:14:28;46.53;;;9.23;;
4047;SDS011;2038;51.728;6.674;2023-01-05T11:17:10;30.53;;;8.77;;
4047;SDS011;2038;51.728;6.674;2023-01-05T11:19:49;28.00;;;9.17;;
4047;SDS011;2038;51.728;6.674;2023-01-05T11:22:34;29.23;;;8.87;;
4047;SDS011;2038;51.728;6.674;2023-01-05T11:30:46;30.00;;;9.63;;
4047;SDS011;2038;51.728;6.674;2023-01-05T11:33:26;33.10;;;8.93;;
4047;SDS011;2038;51.728;6.674;2023-01-05T11:35:58;32.67;;;8.37;;
4047;SDS011;2038;51.728;6.674;2023-01-05T11:38:29;32.53;;;7.60;;
4047;SDS011;2038;51.728;6.674;2023-01-05T11:40:57;27.63;;;6.90;;
4047;SDS011;2038;51.728;6.674;2023-01-05T11:43:25;47.10;;;6.70;;
4047;SDS011;2038;51.728;6.674;2023-01-05T11:45:57;19.20;;;6.60;;
4047;SDS011;2038;51.728;6.674;2023-01-05T11:48:28;28.60;;;7.37;;
4047;SDS011;2038;51.728;6.674;2023-01-05T11:50:59;34.80;;;6.47;;
4047;SDS011;2038;51.728;6.674;2023-01-05T11:55:59;34.77;;;7.60;;
4047;SDS011;2038;51.728;6.674;2023-01-05T11:58:44;31.23;;;8.50;;
4047;SDS011;2038;51.728;6.674;2023-01-05T12:01:29;23.40;;;7.33;;
4047;SDS011;2038;51.728;6.674;2023-01-05T12:07:38;30.93;;;7.60;;
4047;SDS011;2038;51.728;6.674;2023-01-05T12:21:38;32.57;;;10.00;;
4047;SDS011;2038;51.728;6.674;2023-01-05T12:24:35;39.93;;;9.83;;
4047;SDS011;2038;51.728;6.674;2023-01-05T12:27:54;36.67;;;8.30;;
4047;SDS011;2038;51.728;6.674;2023-01-05T12:30:52;40.87;;;8.90;;
4047;SDS011;2038;51.728;6.674;2023-01-05T12:37:31;37.50;;;10.20;;
4047;SDS011;2038;51.728;6.674;2023-01-05T12:50:17;28.70;;;7.10;;
4047;SDS011;2038;51.728;6.674;2023-01-05T12:53:21;25.93;;;8.97;;
4047;SDS011;2038;51.728;6.674;2023-01-05T12:59:01;34.53;;;8.53;;
4047;SDS011;2038;51.728;6.674;2023-01-05T13:01:55;27.30;;;7.23;;
4047;SDS011;2038;51.728;6.674;2023-01-05T13:08:07;29.97;;;8.87;;
4047;SDS011;2038;51.728;6.674;2023-01-05T13:14:24;43.77;;;8.50;;
4047;SDS011;2038;51.728;6.674;2023-01-05T13:17:10;28.37;;;8.30;;
4047;SDS011;2038;51.728;6.674;2023-01-05T13:20:01;35.03;;;8.50;;
4047;SDS011;2038;51.728;6.674;2023-01-05T13:22:52;29.10;;;8.53;;
4047;SDS011;2038;51.728;6.674;2023-01-05T13:25:41;21.97;;;6.70;;
4047;SDS011;2038;51.728;6.674;2023-01-05T13:28:20;41.37;;;8.47;;
4047;SDS011;2038;51.728;6.674;2023-01-05T13:30:56;27.67;;;7.80;;
4047;SDS011;2038;51.728;6.674;2023-01-05T13:34:03;36.33;;;8.57;;
4047;SDS011;2038;51.728;6.674;2023-01-05T13:51:45;24.37;;;8.47;;
4047;SDS011;2038;51.728;6.674;2023-01-05T13:54:25;22.87;;;6.20;;
4047;SDS011;2038;51.728;6.674;2023-01-05T13:57:18;35.37;;;9.03;;
4047;SDS011;2038;51.728;6.674;2023-01-05T13:59:55;26.40;;;7.37;;
4047;SDS011;2038;51.728;6.674;2023-01-05T14:03:00;25.43;;;8.77;;
4047;SDS011;2038;51.728;6.674;2023-01-05T14:05:54;26.83;;;8.53;;
4047;SDS011;2038;51.728;6.674;2023-01-05T14:08:35;26.37;;;7.00;;
4047;SDS011;2038;51.728;6.674;2023-01-05T14:11:05;34.20;;;8.37;;
4047;SDS011;2038;51.728;6.674;2023-01-05T14:13:41;31.07;;;7.70;;
4047;SDS011;2038;51.728;6.674;2023-01-05T14:32:21;27.63;;;6.40;;
4047;SDS011;2038;51.728;6.674;2023-01-05T14:43:19;34.70;;;6.87;;
4047;SDS011;2038;51.728;6.674;2023-01-05T14:46:03;26.07;;;7.40;;
4047;SDS011;2038;51.728;6.674;2023-01-05T14:48:34;30.07;;;6.50;;
4047;SDS011;2038;51.728;6.674;2023-01-05T14:51:24;26.43;;;7.60;;
4047;SDS011;2038;51.728;6.674;2023-01-05T14:53:57;20.07;;;5.47;;
4047;SDS011;2038;51.728;6.674;2023-01-05T14:56:30;33.47;;;6.57;;
4047;SDS011;2038;51.728;6.674;2023-01-05T15:13:15;21.17;;;5.80;;
4047;SDS011;2038;51.728;6.674;2023-01-05T15:16:13;19.73;;;6.03;;
4047;SDS011;2038;51.728;6.674;2023-01-05T15:25:36;22.37;;;5.80;;
4047;SDS011;2038;51.728;6.674;2023-01-05T15:32:05;23.13;;;7.60;;
4047;SDS011;2038;51.728;6.674;2023-01-05T15:37:32;24.13;;;8.80;;
4047;SDS011;2038;51.728;6.674;2023-01-05T15:40:44;24.97;;;9.10;;
4047;SDS011;2038;51.728;6.674;2023-01-05T15:42:55;25.77;;;6.67;;
4047;SDS011;2038;51.728;6.674;2023-01-05T15:45:29;25.30;;;8.43;;
4047;SDS011;2038;51.728;6.674;2023-01-05T15:48:06;27.43;;;7.97;;
4047;SDS011;2038;51.728;6.674;2023-01-05T15:50:46;23.83;;;8.93;;
4047;SDS011;2038;51.728;6.674;2023-01-05T15:56:32;41.13;;;8.83;;
4047;SDS011;2038;51.728;6.674;2023-01-05T15:59:16;32.80;;;8.57;;
4047;SDS011;2038;51.728;6.674;2023-01-05T16:01:55;23.03;;;9.83;;
4047;SDS011;2038;51.728;6.674;2023-01-05T16:04:22;30.87;;;9.30;;
4047;SDS011;2038;51.728;6.674;2023-01-05T16:06:53;29.37;;;8.60;;
4047;SDS011;2038;51.728;6.674;2023-01-05T16:09:32;26.57;;;10.07;;
4047;SDS011;2038;51.728;6.674;2023-01-05T16:12:14;29.37;;;10.60;;
4047;SDS011;2038;51.728;6.674;2023-01-05T16:14:59;36.27;;;10.93;;
4047;SDS011;2038;51.728;6.674;2023-01-05T16:17:29;31.47;;;10.37;;
4047;SDS011;2038;51.728;6.674;2023-01-05T16:20:03;36.67;;;9.70;;
4047;SDS011;2038;51.728;6.674;2023-01-05T16:25:33;39.67;;;13.47;;
4047;SDS011;2038;51.728;6.674;2023-01-05T16:28:07;48.93;;;14.73;;
4047;SDS011;2038;51.728;6.674;2023-01-05T16:30:41;28.00;;;14.00;;
4047;SDS011;2038;51.728;6.674;2023-01-05T16:35:48;35.97;;;13.90;;
4047;SDS011;2038;51.728;6.674;2023-01-05T16:41:08;36.77;;;16.00;;
4047;SDS011;2038;51.728;6.674;2023-01-05T16:43:56;30.23;;;14.87;;
4047;SDS011;2038;51.728;6.674;2023-01-05T16:46:27;40.20;;;14.43;;
4047;SDS011;2038;51.728;6.674;2023-01-05T16:49:00;33.63;;;15.00;;
4047;SDS011;2038;51.728;6.674;2023-01-05T16:51:48;30.17;;;12.30;;
4047;SDS011;2038;51.728;6.674;2023-01-05T16:54:20;37.03;;;13.77;;
4047;SDS011;2038;51.728;6.674;2023-01-05T17:02:50;32.70;;;13.47;;
4047;SDS011;2038;51.728;6.674;2023-01-05T17:05:19;34.83;;;12.80;;
4047;SDS011;2038;51.728;6.674;2023-01-05T17:10:33;27.97;;;12.07;;
4047;SDS011;2038;51.728;6.674;2023-01-05T17:13:03;38.80;;;13.33;;
4047;SDS011;2038;51.728;6.674;2023-01-05T17:15:45;33.80;;;11.90;;
4047;SDS011;2038;51.728;6.674;2023-01-05T17:20:51;27.50;;;11.93;;
4047;SDS011;2038;51.728;6.674;2023-01-05T17:23:22;43.00;;;12.67;;
4047;SDS011;2038;51.728;6.674;2023-01-05T17:25:53;31.43;;;12.53;;
4047;SDS011;2038;51.728;6.674;2023-01-05T17:28:31;20.47;;;9.77;;
4047;SDS011;2038;51.728;6.674;2023-01-05T17:30:57;30.20;;;11.10;;
4047;SDS011;2038;51.728;6.674;2023-01-05T17:33:24;32.03;;;10.30;;
4047;SDS011;2038;51.728;6.674;2023-01-05T17:35:50;36.77;;;10.50;;
4047;SDS011;2038;51.728;6.674;2023-01-05T17:38:17;26.23;;;11.40;;
4047;SDS011;2038;51.728;6.674;2023-01-05T17:40:43;28.43;;;10.23;;
4047;SDS011;2038;51.728;6.674;2023-01-05T17:43:09;41.47;;;11.63;;
4047;SDS011;2038;51.728;6.674;2023-01-05T17:45:37;33.47;;;10.87;;
4047;SDS011;2038;51.728;6.674;2023-01-05T17:48:05;32.47;;;10.50;;
4047;SDS011;2038;51.728;6.674;2023-01-05T17:50:32;34.07;;;9.43;;
4047;SDS011;2038;51.728;6.674;2023-01-05T17:52:59;26.73;;;8.80;;
4047;SDS011;2038;51.728;6.674;2023-01-05T17:55:28;34.63;;;10.57;;
4047;SDS011;2038;51.728;6.674;2023-01-05T17:57:55;37.03;;;11.20;;
4047;SDS011;2038;51.728;6.674;2023-01-05T18:00:23;35.10;;;9.40;;
4047;SDS011;2038;51.728;6.674;2023-01-05T18:02:51;30.67;;;9.43;;
4047;SDS011;2038;51.728;6.674;2023-01-05T18:05:19;38.43;;;9.43;;
4047;SDS011;2038;51.728;6.674;2023-01-05T18:07:46;35.77;;;9.40;;
4047;SDS011;2038;51.728;6.674;2023-01-05T18:10:14;46.37;;;12.70;;
4047;SDS011;2038;51.728;6.674;2023-01-05T18:12:46;27.87;;;8.77;;
4047;SDS011;2038;51.728;6.674;2023-01-05T18:15:13;27.17;;;9.03;;
4047;SDS011;2038;51.728;6.674;2023-01-05T18:17:40;38.67;;;8.53;;
4047;SDS011;2038;51.728;6.674;2023-01-05T18:20:06;39.53;;;8.77;;
4047;SDS011;2038;51.728;6.674;2023-01-05T18:22:36;30.50;;;8.70;;
4047;SDS011;2038;51.728;6.674;2023-01-05T18:25:03;38.57;;;10.20;;
4047;SDS011;2038;51.728;6.674;2023-01-05T18:27:30;43.97;;;11.77;;
4047;SDS011;2038;51.728;6.674;2023-01-05T18:29:59;38.73;;;11.00;;
4047;SDS011;2038;51.728;6.674;2023-01-05T18:32:27;29.90;;;9.33;;
4047;SDS011;2038;51.728;6.674;2023-01-05T18:34:53;38.73;;;10.47;;